createdAt,value
2023-02-07T00:00:13.242Z,36.63
2023-02-07T00:02:42.770Z,28.45
2023-02-07T00:05:09.031Z,27.55
2023-02-07T00:07:35.302Z,23.70
2023-02-07T00:10:01.567Z,21.75
2023-02-07T00:12:27.957Z,24.90
2023-02-07T00:14:54.196Z,23.33
2023-02-07T00:17:20.455Z,29.27
2023-02-07T00:19:46.820Z,22.20
2023-02-07T00:22:13.070Z,21.52
2023-02-07T00:24:39.351Z,22.55
2023-02-07T00:27:05.741Z,20.20
2023-02-07T00:29:32.676Z,23.42
2023-02-07T00:31:58.947Z,23.38
2023-02-07T00:34:25.325Z,22.77
2023-02-07T00:36:51.604Z,25.27
2023-02-07T00:39:18.054Z,24.13
2023-02-07T00:41:45.434Z,32.30
2023-02-07T00:44:11.969Z,28.33
2023-02-07T00:46:38.604Z,29.83
2023-02-07T00:49:05.296Z,24.55
2023-02-07T00:51:32.140Z,26.58
2023-02-07T00:53:58.772Z,28.33
2023-02-07T00:56:26.364Z,26.92
2023-02-07T00:58:52.684Z,27.08
2023-02-07T01:01:20.072Z,27.80
2023-02-07T01:03:46.564Z,21.40
2023-02-07T01:06:13.016Z,24.48
2023-02-07T01:08:40.221Z,23.90
2023-02-07T01:11:07.891Z,31.40
2023-02-07T01:13:34.454Z,26.50
2023-02-07T01:16:00.829Z,31.45
2023-02-07T01:18:27.912Z,27.42
2023-02-07T01:20:54.211Z,24.50
2023-02-07T01:23:20.606Z,25.05
2023-02-07T01:25:46.927Z,25.88
2023-02-07T01:28:14.251Z,24.00
2023-02-07T01:30:44.250Z,35.65
2023-02-07T01:33:10.944Z,23.65
2023-02-07T01:35:37.795Z,34.63
2023-02-07T01:38:04.657Z,27.08
2023-02-07T01:40:31.159Z,28.58
2023-02-07T01:42:59.167Z,25.95
2023-02-07T01:45:30.234Z,24.63
2023-02-07T01:47:59.587Z,24.17
2023-02-07T01:50:25.971Z,24.15
2023-02-07T01:52:53.338Z,28.90
2023-02-07T01:55:22.524Z,28.00
2023-02-07T01:57:48.896Z,24.08
2023-02-07T02:00:15.677Z,22.98
2023-02-07T02:02:43.335Z,29.77
2023-02-07T02:05:12.283Z,21.05
2023-02-07T02:07:39.531Z,26.27
2023-02-07T02:10:07.096Z,25.00
2023-02-07T02:12:33.381Z,22.30
2023-02-07T02:15:05.803Z,28.88
2023-02-07T02:17:47.615Z,23.55
2023-02-07T02:20:32.710Z,25.42
2023-02-07T02:23:17.556Z,29.35
2023-02-07T02:25:43.872Z,26.67
2023-02-07T02:28:23.701Z,26.65
2023-02-07T02:31:12.998Z,27.88
2023-02-07T02:33:42.915Z,30.23
2023-02-07T02:36:12.476Z,23.27
2023-02-07T02:38:45.304Z,25.02
2023-02-07T02:41:18.426Z,27.73
2023-02-07T02:43:46.127Z,29.65
2023-02-07T02:46:18.561Z,29.95
2023-02-07T02:48:45.360Z,21.60
2023-02-07T02:51:11.854Z,23.65
2023-02-07T02:53:38.238Z,21.50
2023-02-07T02:56:14.771Z,29.75
2023-02-07T02:58:52.883Z,22.50
2023-02-07T03:01:54.856Z,21.33
2023-02-07T03:04:21.343Z,24.02
2023-02-07T03:07:01.033Z,20.00
2023-02-07T03:09:37.613Z,24.90
2023-02-07T03:12:15.004Z,21.75
2023-02-07T03:15:07.727Z,29.73
2023-02-07T03:17:36.582Z,17.73
2023-02-07T03:20:11.271Z,22.40
2023-02-07T03:22:38.252Z,21.85
2023-02-07T03:25:05.831Z,21.77
2023-02-07T03:27:33.141Z,24.88
2023-02-07T03:30:00.659Z,17.52
2023-02-07T03:32:30.393Z,18.52
2023-02-07T03:35:03.846Z,20.25
2023-02-07T03:37:41.458Z,14.20
2023-02-07T03:40:08.589Z,20.88
2023-02-07T03:42:40.800Z,16.13
2023-02-07T03:45:09.668Z,14.40
2023-02-07T03:47:36.008Z,18.67
2023-02-07T03:50:02.347Z,18.88
2023-02-07T03:52:28.613Z,18.73
2023-02-07T03:54:54.873Z,15.40
2023-02-07T03:57:21.137Z,15.57
2023-02-07T03:59:47.452Z,16.95
2023-02-07T04:02:13.804Z,16.17
2023-02-07T04:04:40.192Z,19.40
2023-02-07T04:07:06.779Z,18.50
2023-02-07T04:09:35.386Z,13.85
2023-02-07T04:12:04.765Z,15.52
2023-02-07T04:14:31.064Z,16.38
2023-02-07T04:16:57.347Z,15.32
2023-02-07T04:19:23.783Z,16.63
2023-02-07T04:21:50.090Z,15.80
2023-02-07T04:24:16.571Z,14.15
2023-02-07T04:26:42.960Z,21.92
2023-02-07T04:29:09.237Z,17.20
2023-02-07T04:31:37.481Z,15.23
2023-02-07T04:34:04.608Z,13.88
2023-02-07T04:36:31.226Z,13.25
2023-02-07T04:38:57.726Z,19.02
2023-02-07T04:41:24.513Z,17.20
2023-02-07T04:43:50.892Z,16.45
2023-02-07T04:46:17.148Z,19.05
2023-02-07T04:48:43.423Z,19.77
2023-02-07T04:51:09.724Z,13.20
2023-02-07T04:53:35.995Z,14.02
2023-02-07T04:56:02.261Z,13.27
2023-02-07T04:58:28.638Z,18.25
2023-02-07T05:00:54.973Z,16.52
2023-02-07T05:03:21.433Z,16.75
2023-02-07T05:05:47.807Z,16.38
2023-02-07T05:08:14.160Z,15.02
2023-02-07T05:10:40.895Z,20.65
2023-02-07T05:13:07.564Z,19.30
2023-02-07T05:15:34.018Z,17.75
2023-02-07T05:18:01.214Z,16.80
2023-02-07T05:20:27.940Z,13.85
2023-02-07T05:22:54.283Z,16.13
2023-02-07T05:25:20.598Z,17.80
2023-02-07T05:27:46.937Z,19.63
2023-02-07T05:30:13.505Z,17.80
2023-02-07T05:32:58.337Z,18.20
2023-02-07T05:35:24.610Z,22.17
2023-02-07T05:37:50.847Z,15.98
2023-02-07T05:40:17.337Z,23.10
2023-02-07T05:42:43.589Z,16.73
2023-02-07T05:45:10.207Z,15.85
2023-02-07T05:47:36.554Z,17.83
2023-02-07T05:50:03.381Z,22.65
2023-02-07T05:52:29.836Z,17.70
2023-02-07T05:54:56.135Z,21.20
2023-02-07T05:57:22.482Z,21.95
2023-02-07T05:59:48.795Z,17.73
2023-02-07T06:02:15.065Z,19.50
2023-02-07T06:04:41.363Z,28.23
2023-02-07T06:07:07.658Z,21.75
2023-02-07T06:09:34.023Z,18.48
2023-02-07T06:12:00.342Z,25.25
2023-02-07T06:14:27.094Z,16.52
2023-02-07T06:16:53.422Z,25.95
2023-02-07T06:19:19.748Z,30.45
2023-02-07T06:21:47.094Z,22.00
2023-02-07T06:24:14.211Z,27.83
2023-02-07T06:26:40.476Z,26.23
2023-02-07T06:29:06.803Z,24.15
2023-02-07T06:31:33.287Z,26.58
2023-02-07T06:33:59.625Z,23.95
2023-02-07T06:36:25.990Z,25.05
2023-02-07T06:38:55.536Z,29.50
2023-02-07T06:41:22.306Z,23.95
2023-02-07T06:43:48.595Z,29.00
2023-02-07T06:46:14.940Z,27.35
2023-02-07T06:48:41.253Z,21.92
2023-02-07T06:51:07.624Z,23.55
2023-02-07T06:53:33.942Z,26.75
2023-02-07T06:56:01.226Z,24.92
2023-02-07T06:58:27.500Z,26.70
2023-02-07T07:00:53.749Z,25.85
2023-02-07T07:03:20.217Z,33.03
2023-02-07T07:05:46.521Z,25.17
2023-02-07T07:08:15.304Z,27.30
2023-02-07T07:10:41.586Z,37.38
2023-02-07T07:13:07.846Z,22.13
2023-02-07T07:15:34.104Z,27.03
2023-02-07T07:18:00.340Z,28.08
2023-02-07T07:20:26.612Z,27.73
2023-02-07T07:22:52.887Z,28.73
2023-02-07T07:25:19.799Z,26.80
2023-02-07T07:27:46.146Z,22.30
2023-02-07T07:30:12.756Z,32.38
2023-02-07T07:32:39.057Z,33.22
2023-02-07T07:35:06.863Z,27.50
2023-02-07T07:37:33.437Z,26.85
2023-02-07T07:39:59.787Z,28.87
2023-02-07T07:42:26.231Z,26.38
2023-02-07T07:45:06.821Z,27.70
2023-02-07T07:47:33.477Z,26.98
2023-02-07T07:49:59.738Z,28.13
2023-02-07T07:52:26.107Z,34.17
2023-02-07T07:54:52.469Z,33.75
2023-02-07T07:57:21.171Z,28.02
2023-02-07T07:59:47.701Z,26.85
2023-02-07T08:02:14.078Z,27.88
2023-02-07T08:04:40.338Z,26.77
2023-02-07T08:07:06.615Z,26.55
2023-02-07T08:09:32.887Z,23.58
2023-02-07T08:11:59.290Z,29.17
2023-02-07T08:14:25.644Z,33.20
2023-02-07T08:16:51.914Z,31.05
2023-02-07T08:19:18.224Z,35.67
2023-02-07T08:21:44.905Z,29.95
2023-02-07T08:24:11.257Z,28.30
2023-02-07T08:26:37.545Z,30.42
2023-02-07T08:29:04.315Z,32.65
2023-02-07T08:31:30.734Z,25.65
2023-02-07T08:33:57.152Z,27.92
2023-02-07T08:36:23.531Z,25.05
2023-02-07T08:38:50.524Z,33.83
2023-02-07T08:41:16.820Z,35.28
2023-02-07T08:43:43.233Z,33.97
2023-02-07T08:46:09.736Z,36.20
2023-02-07T08:48:36.080Z,29.63
2023-02-07T08:51:06.279Z,41.67
2023-02-07T08:53:32.605Z,31.90
2023-02-07T08:55:58.991Z,31.30
2023-02-07T08:58:25.393Z,40.70
2023-02-07T09:00:51.788Z,28.63
2023-02-07T09:03:18.086Z,28.15
2023-02-07T09:05:44.386Z,41.30
2023-02-07T09:08:10.792Z,21.90
2023-02-07T09:10:37.289Z,30.50
2023-02-07T09:13:03.758Z,35.38
2023-02-07T09:15:30.111Z,26.80
2023-02-07T09:17:56.573Z,33.50
2023-02-07T09:20:22.903Z,29.92
2023-02-07T09:23:08.062Z,26.27
2023-02-07T09:25:36.853Z,27.73
2023-02-07T09:28:03.134Z,26.30
2023-02-07T09:30:29.482Z,24.02
2023-02-07T09:32:56.877Z,24.73
2023-02-07T09:35:23.126Z,24.25
2023-02-07T09:37:52.151Z,27.75
2023-02-07T09:40:19.574Z,27.45
2023-02-07T09:42:49.050Z,25.55
2023-02-07T09:45:20.635Z,28.48
2023-02-07T09:47:49.011Z,27.58
2023-02-07T09:50:18.321Z,23.85
2023-02-07T09:52:47.428Z,26.08
2023-02-07T09:55:28.418Z,26.35
2023-02-07T09:58:00.536Z,22.08
2023-02-07T10:00:29.224Z,20.98
2023-02-07T10:03:02.750Z,23.50
2023-02-07T10:05:36.484Z,23.73
2023-02-07T10:08:03.068Z,29.92
2023-02-07T10:10:40.187Z,29.75
2023-02-07T10:13:36.121Z,31.05
2023-02-07T10:16:08.493Z,30.15
2023-02-07T10:18:40.005Z,32.13
2023-02-07T10:21:24.426Z,49.70
2023-02-07T10:24:01.472Z,34.40
2023-02-07T10:26:42.198Z,35.20
2023-02-07T10:29:35.289Z,42.88
2023-02-07T10:32:03.743Z,35.22
2023-02-07T10:34:38.123Z,37.90
2023-02-07T10:37:15.003Z,44.78
2023-02-07T10:39:45.083Z,35.42
2023-02-07T10:42:15.432Z,34.65
2023-02-07T10:44:42.403Z,38.65
2023-02-07T10:47:16.422Z,46.00
2023-02-07T10:49:44.307Z,35.58
2023-02-07T10:52:28.551Z,33.03
2023-02-07T10:54:58.742Z,37.88
2023-02-07T10:57:25.764Z,34.97
2023-02-07T11:00:18.377Z,37.70
2023-02-07T11:02:49.394Z,39.58
2023-02-07T11:05:15.759Z,35.63
2023-02-07T11:07:55.447Z,41.83
2023-02-07T11:10:24.278Z,33.92
2023-02-07T11:12:54.933Z,33.25
2023-02-07T11:15:23.535Z,39.40
2023-02-07T11:17:51.599Z,38.10
2023-02-07T11:20:29.095Z,38.22
2023-02-07T11:22:56.812Z,38.83
2023-02-07T11:25:34.748Z,40.33
2023-02-07T11:28:01.160Z,42.38
2023-02-07T11:30:28.835Z,44.65
2023-02-07T11:32:59.759Z,48.00
2023-02-07T11:35:26.185Z,41.88
2023-02-07T11:37:58.518Z,52.25
2023-02-07T11:40:28.197Z,41.20
2023-02-07T11:43:09.952Z,47.58
2023-02-07T11:45:38.499Z,37.92
2023-02-07T11:48:06.076Z,38.33
2023-02-07T11:50:36.480Z,39.22
2023-02-07T11:53:03.556Z,47.03
2023-02-07T11:55:35.302Z,62.38
2023-02-07T11:58:20.746Z,43.40
2023-02-07T12:00:47.411Z,52.28
2023-02-07T12:03:27.529Z,43.50
2023-02-07T12:05:55.361Z,44.17
2023-02-07T12:08:24.018Z,49.45
2023-02-07T12:10:54.140Z,51.13
2023-02-07T12:13:27.042Z,43.05
2023-02-07T12:15:59.054Z,39.30
2023-02-07T12:18:33.951Z,34.05
2023-02-07T12:21:09.571Z,36.88
2023-02-07T12:26:19.755Z,38.67
2023-02-07T12:28:53.319Z,39.15
2023-02-07T12:31:27.152Z,35.10
2023-02-07T12:34:09.790Z,44.03
2023-02-07T12:36:42.066Z,43.22
2023-02-07T12:39:14.234Z,39.15
2023-02-07T12:41:49.117Z,44.72
2023-02-07T12:44:23.908Z,35.17
2023-02-07T12:47:01.350Z,37.92
2023-02-07T12:49:28.451Z,39.22
2023-02-07T12:51:57.732Z,38.25
2023-02-07T12:54:43.498Z,43.10
2023-02-07T12:57:17.631Z,43.13
2023-02-07T12:59:50.921Z,41.50
2023-02-07T13:02:36.051Z,41.95
2023-02-07T13:05:22.922Z,41.83
2023-02-07T13:07:49.550Z,39.90
2023-02-07T13:10:36.499Z,40.25
2023-02-07T13:13:10.535Z,34.90
2023-02-07T13:15:45.778Z,37.72
2023-02-07T13:18:23.837Z,37.60
2023-02-07T13:20:53.938Z,37.42
2023-02-07T13:23:22.588Z,41.38
2023-02-07T13:25:53.330Z,31.15
2023-02-07T13:28:19.958Z,39.33
2023-02-07T13:30:47.559Z,38.80
2023-02-07T13:33:35.457Z,38.55
2023-02-07T13:36:11.674Z,41.70
2023-02-07T13:39:04.929Z,38.47
2023-02-07T13:41:34.518Z,45.25
2023-02-07T13:44:27.290Z,41.00
2023-02-07T13:47:05.842Z,41.80
2023-02-07T13:49:40.545Z,38.00
2023-02-07T13:52:14.170Z,46.90
2023-02-07T13:54:42.255Z,37.53
2023-02-07T13:57:56.560Z,39.60
2023-02-07T14:00:25.188Z,36.95
2023-02-07T14:02:52.837Z,37.80
2023-02-07T14:05:21.111Z,40.78
2023-02-07T14:07:51.197Z,40.28
2023-02-07T14:10:37.865Z,38.03
2023-02-07T14:13:04.958Z,32.53
2023-02-07T14:15:31.847Z,35.58
2023-02-07T14:17:59.855Z,39.20
2023-02-07T14:20:38.871Z,38.92
2023-02-07T14:23:11.066Z,37.75
2023-02-07T14:25:39.701Z,39.25
2023-02-07T14:28:08.231Z,35.72
2023-02-07T14:30:53.812Z,31.60
2023-02-07T14:33:31.222Z,33.92
2023-02-07T14:36:07.015Z,31.52
2023-02-07T14:38:36.256Z,35.28
2023-02-07T14:41:10.586Z,31.58
2023-02-07T14:46:09.053Z,33.83
2023-02-07T14:48:58.509Z,37.08
2023-02-07T14:51:31.558Z,38.38
2023-02-07T14:54:01.710Z,33.22
2023-02-07T14:56:40.921Z,36.28
2023-02-07T14:59:10.764Z,39.45
2023-02-07T15:01:37.358Z,37.83
2023-02-07T15:04:05.420Z,40.60
2023-02-07T15:06:40.914Z,38.22
2023-02-07T15:09:16.727Z,35.97
2023-02-07T15:11:49.441Z,37.05
2023-02-07T15:14:22.863Z,37.05
2023-02-07T15:16:52.943Z,39.78
2023-02-07T15:19:36.456Z,34.08
2023-02-07T15:22:09.748Z,31.77
2023-02-07T15:24:51.110Z,39.03
2023-02-07T15:27:20.398Z,43.97
2023-02-07T15:29:54.238Z,33.17
2023-02-07T15:32:23.073Z,36.38
2023-02-07T15:34:49.857Z,44.30
2023-02-07T15:37:34.707Z,38.88
2023-02-07T15:40:01.186Z,36.60
2023-02-07T15:42:29.087Z,37.30
2023-02-07T15:44:58.094Z,41.75
2023-02-07T15:47:27.745Z,41.40
2023-02-07T15:50:02.520Z,35.58
2023-02-07T15:52:31.747Z,34.00
2023-02-07T15:55:01.414Z,36.03
2023-02-07T15:57:32.043Z,35.65
2023-02-07T16:00:13.929Z,37.70
2023-02-07T16:02:52.497Z,42.65
2023-02-07T16:05:24.797Z,34.83
2023-02-07T16:07:51.744Z,43.90
2023-02-07T16:10:24.733Z,34.67
2023-02-07T16:12:55.579Z,43.00
2023-02-07T16:15:27.346Z,37.03
2023-02-07T16:17:54.493Z,35.63
2023-02-07T16:20:21.186Z,30.33
2023-02-07T16:22:49.070Z,34.50
2023-02-07T16:25:22.401Z,34.35
2023-02-07T16:27:51.686Z,33.92
2023-02-07T16:30:29.282Z,32.25
2023-02-07T16:32:56.672Z,32.05
2023-02-07T16:35:28.534Z,32.75
2023-02-07T16:37:55.935Z,32.55
2023-02-07T16:40:26.672Z,38.53
2023-02-07T16:42:57.711Z,26.95
2023-02-07T16:45:26.377Z,39.47
2023-02-07T16:47:53.462Z,39.00
2023-02-07T16:50:21.373Z,30.27
2023-02-07T16:52:50.532Z,32.03
2023-02-07T16:55:18.121Z,31.13
2023-02-07T16:57:47.076Z,31.25
2023-02-07T17:00:15.664Z,33.58
2023-02-07T17:02:42.896Z,36.80
2023-02-07T17:05:10.012Z,28.20
2023-02-07T17:07:37.183Z,32.13
2023-02-07T17:10:11.907Z,38.20
2023-02-07T17:12:38.755Z,32.15
2023-02-07T17:15:06.065Z,37.63
2023-02-07T17:17:35.184Z,30.65
2023-02-07T17:20:12.413Z,33.85
2023-02-07T17:22:39.849Z,29.00
2023-02-07T17:25:06.499Z,33.55
2023-02-07T17:27:32.863Z,39.38
2023-02-07T17:30:00.179Z,33.72
2023-02-07T17:32:26.883Z,32.65
2023-02-07T17:34:57.405Z,33.63
2023-02-07T17:37:25.040Z,30.90
2023-02-07T17:39:56.240Z,31.95
2023-02-07T17:42:22.590Z,33.00
2023-02-07T17:44:49.123Z,40.88
2023-02-07T17:47:15.785Z,38.53
2023-02-07T17:49:42.316Z,44.08
2023-02-07T17:52:13.597Z,34.00
2023-02-07T17:54:47.424Z,38.65
2023-02-07T17:57:14.721Z,36.17
2023-02-07T17:59:41.562Z,30.58
2023-02-07T18:02:10.307Z,36.45
2023-02-07T18:04:40.394Z,30.05
2023-02-07T18:07:09.669Z,39.15
2023-02-07T18:09:40.268Z,32.05
2023-02-07T18:12:06.762Z,34.00
2023-02-07T18:14:33.267Z,28.80
2023-02-07T18:16:59.693Z,30.23
2023-02-07T18:19:26.127Z,41.35
2023-02-07T18:21:54.664Z,38.33
2023-02-07T18:24:22.219Z,31.23
2023-02-07T18:26:48.593Z,35.15
2023-02-07T18:29:16.521Z,31.48
2023-02-07T18:31:47.849Z,37.72
2023-02-07T18:34:14.411Z,42.03
2023-02-07T18:36:41.301Z,34.83
2023-02-07T18:39:11.323Z,33.67
2023-02-07T18:41:38.088Z,37.08
2023-02-07T18:44:09.341Z,35.17
2023-02-07T18:46:39.174Z,35.92
2023-02-07T18:49:06.612Z,33.00
2023-02-07T18:51:33.271Z,39.33
2023-02-07T18:54:01.970Z,40.90
2023-02-07T18:56:28.515Z,39.78
2023-02-07T18:58:59.155Z,43.13
2023-02-07T19:01:26.438Z,44.95
2023-02-07T19:03:58.030Z,38.55
2023-02-07T19:06:26.435Z,36.00
2023-02-07T19:08:54.743Z,33.95
2023-02-07T19:11:21.155Z,37.00
2023-02-07T19:13:47.610Z,42.90
2023-02-07T19:16:17.546Z,36.22
2023-02-07T19:18:45.324Z,35.58
2023-02-07T19:21:16.368Z,40.35
2023-02-07T19:23:42.996Z,39.63
2023-02-07T19:26:11.148Z,39.42
2023-02-07T19:28:40.121Z,41.20
2023-02-07T19:31:07.319Z,40.22
2023-02-07T19:33:34.920Z,38.65
2023-02-07T19:36:08.624Z,38.05
2023-02-07T19:38:35.103Z,37.05
2023-02-07T19:41:02.591Z,41.35
2023-02-07T19:43:30.301Z,43.60
2023-02-07T19:45:57.461Z,43.22
2023-02-07T19:48:24.504Z,39.75
2023-02-07T19:50:58.476Z,35.78
2023-02-07T19:53:26.061Z,37.08
2023-02-07T19:55:55.244Z,38.80
2023-02-07T19:58:22.339Z,46.70
2023-02-07T20:00:49.006Z,40.95
2023-02-07T20:03:25.175Z,43.47
2023-02-07T20:05:57.848Z,39.35
2023-02-07T20:08:25.170Z,45.70
2023-02-07T20:10:51.584Z,39.45
2023-02-07T20:13:20.121Z,38.13
2023-02-07T20:15:47.065Z,39.15
2023-02-07T20:18:13.998Z,36.40
2023-02-07T20:20:46.599Z,38.88
2023-02-07T20:23:14.549Z,35.95
2023-02-07T20:25:41.556Z,34.85
2023-02-07T20:28:08.756Z,34.72
2023-02-07T20:30:35.547Z,37.38
2023-02-07T20:33:04.843Z,33.35
2023-02-07T20:35:33.669Z,37.30
2023-02-07T20:38:09.130Z,34.38
2023-02-07T20:40:35.657Z,37.05
2023-02-07T20:43:03.053Z,34.17
2023-02-07T20:45:29.630Z,31.92
2023-02-07T20:47:56.141Z,36.58
2023-02-07T20:50:23.725Z,37.47
2023-02-07T20:52:50.755Z,36.50
2023-02-07T20:55:17.495Z,32.22
2023-02-07T20:57:43.901Z,38.47
2023-02-07T21:00:10.949Z,36.22
2023-02-07T21:02:39.827Z,34.55
2023-02-07T21:05:06.294Z,40.60
2023-02-07T21:07:32.918Z,40.45
2023-02-07T21:10:02.084Z,39.95
2023-02-07T21:12:29.063Z,41.92
2023-02-07T21:14:57.351Z,29.60
2023-02-07T21:17:23.875Z,37.78
2023-02-07T21:19:51.330Z,45.40
2023-02-07T21:22:36.218Z,40.88
2023-02-07T21:25:02.558Z,37.08
2023-02-07T21:27:28.995Z,34.95
2023-02-07T21:29:55.957Z,37.20
2023-02-07T21:32:22.335Z,38.75
2023-02-07T21:34:48.789Z,37.22
2023-02-07T21:37:15.160Z,36.00
2023-02-07T21:39:42.950Z,35.13
2023-02-07T21:42:10.592Z,37.60
2023-02-07T21:44:37.825Z,40.00
2023-02-07T21:47:04.525Z,36.85
2023-02-07T21:49:33.007Z,40.40
2023-02-07T21:52:01.796Z,41.65
2023-02-07T21:54:29.686Z,37.95
2023-02-07T21:56:56.820Z,43.78
2023-02-07T21:59:23.431Z,43.08
2023-02-07T22:01:51.515Z,42.95
2023-02-07T22:04:18.578Z,41.88
2023-02-07T22:06:47.155Z,38.80
2023-02-07T22:09:16.648Z,39.25
2023-02-07T22:11:43.541Z,38.13
2023-02-07T22:14:11.668Z,36.30
2023-02-07T22:16:38.994Z,36.13
2023-02-07T22:19:06.089Z,46.55
2023-02-07T22:21:33.744Z,32.05
2023-02-07T22:24:00.707Z,39.50
2023-02-07T22:26:27.693Z,45.53
2023-02-07T22:28:54.540Z,33.45
2023-02-07T22:31:25.312Z,42.35
2023-02-07T22:33:53.080Z,36.38
2023-02-07T22:36:21.376Z,36.05
2023-02-07T22:38:47.955Z,37.92
2023-02-07T22:41:14.796Z,38.20
2023-02-07T22:43:43.824Z,34.38
2023-02-07T22:46:12.437Z,31.45
2023-02-07T22:48:39.975Z,30.27
2023-02-07T22:51:19.196Z,33.88
2023-02-07T22:53:45.893Z,38.88
2023-02-07T22:56:12.299Z,32.70
2023-02-07T22:58:40.163Z,32.28
2023-02-07T23:01:06.678Z,34.17
2023-02-07T23:03:33.798Z,36.13
2023-02-07T23:06:05.296Z,35.67
2023-02-07T23:08:33.504Z,38.17
2023-02-07T23:10:59.829Z,34.95
2023-02-07T23:13:26.696Z,36.47
2023-02-07T23:15:53.882Z,34.38
2023-02-07T23:18:20.649Z,33.65
2023-02-07T23:20:47.724Z,40.83
2023-02-07T23:23:15.563Z,34.30
2023-02-07T23:25:44.016Z,34.55
2023-02-07T23:28:10.559Z,37.47
2023-02-07T23:30:37.961Z,30.55
2023-02-07T23:33:05.440Z,32.17
2023-02-07T23:35:32.033Z,28.73
2023-02-07T23:37:58.367Z,28.02
2023-02-07T23:40:25.041Z,34.75
2023-02-07T23:42:51.500Z,27.15
2023-02-07T23:45:17.883Z,31.77
2023-02-07T23:47:44.272Z,30.73
2023-02-07T23:50:10.908Z,32.40
2023-02-07T23:52:39.251Z,29.02
2023-02-07T23:55:05.831Z,31.83
2023-02-07T23:57:32.528Z,33.30
2023-02-07T23:59:58.934Z,31.65
